首页
METAR-TAF:

METAR-TAF

机场 :

内利斯空军基地

Nellis, 内华达州, 美国

纬度: 36-14N, 经度: 115-02W, 海拔: 570米

当前天气观测

该预报发布于21分钟前的20:58 UTC
风速16节,风向,有时为22节阵风
温度 37°C
湿度 7%
气压 1002 hPa
能見度: 16.1公里
多云层高于18000英尺

METAR: KLSV 052058Z 18016G22KT 10SM BKN180 37/M04 A2960 RMK AO2A SLP993 WND DATA ESTMD T03741042 57019 $

时间: 14:19 (21:19 UTC)

预报

该预报发布于6小时和19分钟前的15:00 UTC
预报有效从05日的 15点(UTC)到 06日的 21点(UTC)
风速6节,风向多变
能见度10公里或以上
多云层高于25000英尺
成为
从 05日的 16点(UTC)到 05日的 17点(UTC)
风速12节,风向南转南东
能见度10公里或以上
散云层高于25000英尺
成为
从 05日的 18点(UTC)到 05日的 19点(UTC)
风速15节,风向南转南东,有时为25节阵风
能见度10公里或以上
散云层高于25000英尺
成为
从 06日的 05点(UTC)到 06日的 06点(UTC)
风速10节,风向
能见度10公里或以上
少量云层高于25000英尺
成为
从 06日的 13点(UTC)到 06日的 14点(UTC)
风速12节,风向,有时为18节阵风
能见度10公里或以上
天空无云
成为
从 06日的 16点(UTC)到 06日的 17点(UTC)
风速15节,风向,有时为25节阵风
能见度10公里或以上
少量云层高于15000英尺

TAF: KLSV 051500Z 0515/0621 VRB06KT 9999 BKN250 QNH2970INS BECMG 0516/0517 16012KT 9999 SCT250 QNH2960INS BECMG 0518/0519 16015G25KT 9999 SCT250 520009 QNH2953INS BECMG 0605/0606 18010KT 9999 FEW250 QNH2957INS BECMG 0613/0614 19012G18KT 9999 SKC QNH2965INS BECMG 0616/0617 19015G25KT 9999 FEW150 520009 QNH2969INS TX39/0523Z TN22/0612Z

超过4000个机场的气象观测和天气预报(METAR&TAF报告)。

可查询的气象台以黄色和红色小点在地图上表示。

将鼠标移到小点上方,可查看气象台名称。

然后点击查看天气观测和预报。

如需切换地图:点击带黑十字的绿色按钮放大地图;点击带横线的绿色按钮缩小地图;或者点击绿色箭头查看邻近地区的地图。


METAR-TAF: